createdAt,value
2023-02-17T00:00:59.205Z,7.70
2023-02-17T00:03:26.621Z,7.70
2023-02-17T00:05:53.513Z,7.70
2023-02-17T00:08:23.495Z,7.70
2023-02-17T00:10:58.510Z,7.70
2023-02-17T00:13:25.270Z,7.70
2023-02-17T00:15:52.267Z,7.70
2023-02-17T00:18:19.393Z,7.70
2023-02-17T00:20:46.040Z,7.60
2023-02-17T00:23:12.660Z,7.60
2023-02-17T00:25:39.399Z,7.60
2023-02-17T00:28:06.423Z,7.60
2023-02-17T00:30:33.295Z,7.60
2023-02-17T00:33:00.267Z,7.60
2023-02-17T00:35:26.948Z,7.60
2023-02-17T00:37:53.576Z,7.60
2023-02-17T00:40:21.165Z,7.70
2023-02-17T00:42:48.890Z,7.70
2023-02-17T00:45:15.638Z,7.70
2023-02-17T00:47:42.243Z,7.70
2023-02-17T00:50:09.296Z,7.70
2023-02-17T00:52:35.995Z,7.70
2023-02-17T00:55:02.742Z,7.70
2023-02-17T00:57:32.180Z,7.80
2023-02-17T00:59:59.003Z,7.80
2023-02-17T01:02:25.655Z,7.80
2023-02-17T01:04:52.853Z,7.80
2023-02-17T01:07:19.484Z,7.80
2023-02-17T01:09:46.114Z,7.80
2023-02-17T01:12:13.225Z,7.80
2023-02-17T01:14:39.849Z,7.80
2023-02-17T01:17:06.544Z,7.90
2023-02-17T01:19:33.203Z,7.90
2023-02-17T01:21:59.833Z,7.90
2023-02-17T01:24:26.461Z,7.90
2023-02-17T01:26:55.962Z,8.00
2023-02-17T01:29:22.662Z,8.00
2023-02-17T01:31:49.306Z,8.00
2023-02-17T01:34:15.929Z,8.00
2023-02-17T01:36:42.539Z,8.00
2023-02-17T01:39:13.017Z,8.00
2023-02-17T01:41:39.618Z,8.00
2023-02-17T01:44:26.551Z,8.00
2023-02-17T01:46:54.957Z,8.00
2023-02-17T01:49:35.247Z,8.00
2023-02-17T01:52:10.111Z,8.00
2023-02-17T01:54:40.334Z,8.00
2023-02-17T01:57:07.127Z,8.00
2023-02-17T01:59:33.959Z,8.10
2023-02-17T02:02:07.094Z,8.10
2023-02-17T02:04:39.035Z,8.10
2023-02-17T02:07:10.437Z,8.10
2023-02-17T02:09:40.963Z,8.10
2023-02-17T02:12:22.743Z,8.10
2023-02-17T02:14:50.103Z,8.20
2023-02-17T02:17:40.072Z,8.20
2023-02-17T02:20:24.738Z,8.20
2023-02-17T02:23:20.817Z,8.20
2023-02-17T02:26:11.352Z,8.20
2023-02-17T02:28:43.693Z,8.20
2023-02-17T02:31:21.292Z,8.10
2023-02-17T02:33:56.827Z,8.10
2023-02-17T02:36:26.571Z,8.20
2023-02-17T02:39:01.489Z,8.20
2023-02-17T02:41:33.926Z,8.10
2023-02-17T02:44:06.775Z,8.10
2023-02-17T02:46:33.488Z,8.10
2023-02-17T02:49:01.279Z,8.10
2023-02-17T02:51:40.476Z,8.10
2023-02-17T02:54:23.603Z,8.10
2023-02-17T02:57:25.271Z,8.10
2023-02-17T03:00:06.842Z,8.10
2023-02-17T03:02:52.433Z,8.10
2023-02-17T03:05:36.996Z,8.10
2023-02-17T03:08:17.520Z,8.10
2023-02-17T03:10:54.058Z,8.10
2023-02-17T03:13:20.818Z,8.10
2023-02-17T03:15:48.532Z,8.20
2023-02-17T03:18:15.544Z,8.20
2023-02-17T03:20:57.375Z,8.20
2023-02-17T03:23:24.022Z,8.20
2023-02-17T03:25:50.753Z,8.20
2023-02-17T03:28:18.499Z,8.20
2023-02-17T03:30:45.304Z,8.20
2023-02-17T03:33:11.993Z,8.30
2023-02-17T03:35:38.618Z,8.30
2023-02-17T03:38:05.330Z,8.20
2023-02-17T03:40:32.005Z,8.20
2023-02-17T03:42:58.747Z,8.20
2023-02-17T03:45:25.707Z,8.20
2023-02-17T03:47:52.365Z,8.20
2023-02-17T03:50:19.015Z,8.20
2023-02-17T03:52:46.297Z,8.20
2023-02-17T03:55:14.358Z,8.20
2023-02-17T03:57:40.994Z,8.30
2023-02-17T04:00:08.296Z,8.30
2023-02-17T04:02:35.027Z,8.30
2023-02-17T04:05:01.874Z,8.30
2023-02-17T04:07:28.613Z,8.30
2023-02-17T04:09:55.240Z,8.30
2023-02-17T04:12:21.847Z,8.40
2023-02-17T04:14:48.448Z,8.40
2023-02-17T04:17:15.054Z,8.30
2023-02-17T04:19:41.659Z,8.40
2023-02-17T04:22:08.963Z,8.40
2023-02-17T04:24:37.067Z,8.40
2023-02-17T04:27:05.241Z,8.40
2023-02-17T04:29:35.301Z,8.40
2023-02-17T04:32:02.116Z,8.40
2023-02-17T04:34:28.854Z,8.30
2023-02-17T04:36:55.515Z,8.30
2023-02-17T04:39:22.157Z,8.30
2023-02-17T04:41:48.841Z,8.30
2023-02-17T04:44:15.438Z,8.20
2023-02-17T04:46:42.150Z,8.20
2023-02-17T04:49:08.794Z,8.20
2023-02-17T04:51:35.442Z,8.20
2023-02-17T04:54:02.104Z,8.20
2023-02-17T04:56:28.702Z,8.20
2023-02-17T04:58:55.381Z,8.20
2023-02-17T05:01:22.132Z,8.20
2023-02-17T05:03:48.798Z,8.20
2023-02-17T05:06:15.480Z,8.20
2023-02-17T05:08:42.118Z,8.10
2023-02-17T05:11:08.767Z,8.10
2023-02-17T05:13:35.369Z,8.10
2023-02-17T05:16:02.361Z,8.10
2023-02-17T05:18:28.996Z,8.10
2023-02-17T05:20:55.676Z,8.00
2023-02-17T05:23:22.472Z,8.00
2023-02-17T05:25:49.060Z,8.10
2023-02-17T05:28:15.686Z,8.10
2023-02-17T05:30:42.330Z,8.20
2023-02-17T05:33:08.955Z,8.20
2023-02-17T05:35:36.458Z,8.20
2023-02-17T05:38:03.075Z,8.30
2023-02-17T05:40:30.785Z,8.30
2023-02-17T05:42:57.387Z,8.20
2023-02-17T05:45:23.979Z,8.20
2023-02-17T05:47:50.627Z,8.30
2023-02-17T05:50:17.358Z,8.20
2023-02-17T05:52:44.006Z,8.30
2023-02-17T05:55:10.668Z,8.30
2023-02-17T05:57:37.339Z,8.40
2023-02-17T06:00:05.338Z,8.40
2023-02-17T06:02:31.947Z,8.60
2023-02-17T06:04:58.679Z,8.70
2023-02-17T06:07:25.404Z,8.80
2023-02-17T06:09:52.015Z,8.90
2023-02-17T06:12:18.626Z,9.10
2023-02-17T06:14:45.417Z,9.20
2023-02-17T06:17:12.057Z,9.30
2023-02-17T06:19:38.692Z,9.40
2023-02-17T06:22:05.373Z,9.40
2023-02-17T06:24:31.986Z,9.50
2023-02-17T06:26:58.720Z,9.50
2023-02-17T06:29:25.428Z,9.60
2023-02-17T06:31:52.113Z,9.60
2023-02-17T06:34:18.876Z,9.60
2023-02-17T06:36:45.607Z,9.60
2023-02-17T06:39:12.257Z,9.70
2023-02-17T06:41:38.966Z,9.70
2023-02-17T06:44:05.585Z,9.70
2023-02-17T06:46:32.196Z,9.90
2023-02-17T06:49:00.073Z,9.90
2023-02-17T06:51:27.135Z,9.90
2023-02-17T06:53:54.255Z,9.90
2023-02-17T06:56:21.262Z,9.90
2023-02-17T06:58:48.262Z,9.90
2023-02-17T07:01:26.388Z,9.90
2023-02-17T07:03:54.469Z,9.90
2023-02-17T07:06:21.803Z,9.90
2023-02-17T07:08:48.828Z,9.90
2023-02-17T07:11:16.639Z,9.80
2023-02-17T07:13:43.643Z,9.90
2023-02-17T07:16:13.147Z,9.90
2023-02-17T07:18:39.900Z,9.90
2023-02-17T07:21:09.037Z,9.90
2023-02-17T07:23:36.520Z,9.90
2023-02-17T07:26:05.484Z,9.90
2023-02-17T07:28:32.413Z,9.90
2023-02-17T07:31:14.841Z,9.90
2023-02-17T07:33:42.596Z,9.80
2023-02-17T07:36:14.644Z,9.90
2023-02-17T07:38:42.113Z,9.90
2023-02-17T07:41:14.167Z,9.90
2023-02-17T07:43:41.227Z,9.90
2023-02-17T07:46:09.419Z,9.90
2023-02-17T07:48:36.591Z,9.80
2023-02-17T07:51:11.601Z,9.90
2023-02-17T07:53:38.954Z,9.90
2023-02-17T07:56:07.796Z,9.90
2023-02-17T07:58:36.172Z,9.90
2023-02-17T08:01:10.361Z,9.90
2023-02-17T08:03:37.298Z,9.90
2023-02-17T08:06:05.093Z,9.90
2023-02-17T08:08:50.745Z,9.90
2023-02-17T08:11:36.128Z,9.80
2023-02-17T08:14:03.045Z,9.90
2023-02-17T08:16:29.688Z,9.90
2023-02-17T08:18:56.483Z,9.90
2023-02-17T08:21:24.968Z,9.90
2023-02-17T08:23:51.707Z,9.80
2023-02-17T08:26:19.306Z,9.90
2023-02-17T08:28:45.974Z,9.90
2023-02-17T08:31:26.204Z,9.90
2023-02-17T08:33:53.388Z,9.90
2023-02-17T08:36:22.177Z,9.90
2023-02-17T08:38:51.215Z,9.90
2023-02-17T08:41:31.516Z,9.90
2023-02-17T08:44:00.470Z,9.90
2023-02-17T08:46:28.462Z,9.90
2023-02-17T08:48:56.281Z,9.90
2023-02-17T08:51:26.039Z,9.90
2023-02-17T08:53:56.707Z,9.90
2023-02-17T08:56:24.725Z,9.90
2023-02-17T08:58:51.964Z,9.90
2023-02-17T09:01:19.179Z,9.90
2023-02-17T09:03:48.312Z,9.90
2023-02-17T09:06:15.736Z,9.90
2023-02-17T09:08:42.982Z,9.90
2023-02-17T09:11:10.130Z,9.90
2023-02-17T09:13:37.187Z,10.00
2023-02-17T09:16:05.189Z,9.90
2023-02-17T09:18:32.252Z,10.00
2023-02-17T09:21:00.472Z,10.00
2023-02-17T09:23:27.452Z,10.00
2023-02-17T09:26:11.504Z,10.00
2023-02-17T09:28:39.377Z,10.00
2023-02-17T09:31:16.750Z,10.00
2023-02-17T09:33:43.944Z,10.00
2023-02-17T09:36:20.312Z,9.90
2023-02-17T09:38:48.035Z,10.00
2023-02-17T09:41:17.428Z,10.00
2023-02-17T09:43:45.028Z,10.00
2023-02-17T09:46:29.210Z,10.00
2023-02-17T09:49:01.475Z,10.00
2023-02-17T09:51:34.439Z,10.00
2023-02-17T09:54:29.540Z,10.00
2023-02-17T09:56:58.294Z,10.00
2023-02-17T09:59:32.216Z,10.00
2023-02-17T10:02:00.038Z,10.00
2023-02-17T10:04:37.599Z,10.00
2023-02-17T10:07:17.707Z,10.10
2023-02-17T10:10:08.343Z,10.10
2023-02-17T10:12:39.311Z,10.10
2023-02-17T10:15:13.850Z,10.10
2023-02-17T10:18:04.864Z,10.20
2023-02-17T10:20:57.318Z,10.10
2023-02-17T10:23:26.866Z,10.20
2023-02-17T10:26:31.042Z,10.30
2023-02-17T10:29:14.374Z,10.30
2023-02-17T10:32:04.767Z,10.30
2023-02-17T10:34:42.915Z,10.30
2023-02-17T10:37:16.684Z,10.40
2023-02-17T10:39:52.399Z,10.50
2023-02-17T10:42:25.805Z,10.50
2023-02-17T10:44:56.467Z,10.50
2023-02-17T10:47:23.224Z,10.50
2023-02-17T10:49:55.948Z,10.60
2023-02-17T10:52:28.141Z,10.60
2023-02-17T10:54:59.856Z,10.60
2023-02-17T10:57:32.955Z,10.70
2023-02-17T10:59:59.640Z,10.80
2023-02-17T11:02:48.338Z,10.80
2023-02-17T11:05:29.993Z,10.80
2023-02-17T11:08:00.833Z,10.80
2023-02-17T11:10:29.343Z,10.80
2023-02-17T11:12:58.524Z,10.80
2023-02-17T11:15:44.925Z,10.90
2023-02-17T11:18:20.994Z,10.80
2023-02-17T11:20:48.542Z,10.90
2023-02-17T11:23:15.781Z,10.90
2023-02-17T11:25:43.867Z,10.90
2023-02-17T11:28:24.150Z,11.00
2023-02-17T11:31:20.755Z,10.90
2023-02-17T11:33:47.653Z,10.90
2023-02-17T11:36:32.253Z,10.90
2023-02-17T11:39:00.825Z,10.90
2023-02-17T11:41:27.469Z,10.90
2023-02-17T11:43:59.178Z,10.90
2023-02-17T11:47:09.486Z,10.80
2023-02-17T11:49:50.756Z,10.70
2023-02-17T11:52:32.286Z,10.60
2023-02-17T11:55:14.749Z,10.40
2023-02-17T11:57:47.311Z,10.40
2023-02-17T12:00:32.465Z,10.30
2023-02-17T12:03:31.737Z,10.30
2023-02-17T12:06:35.741Z,10.30
2023-02-17T12:09:27.282Z,10.40
2023-02-17T12:12:20.307Z,10.40
2023-02-17T12:15:02.990Z,10.40
2023-02-17T12:17:44.896Z,10.40
2023-02-17T12:20:20.528Z,10.40
2023-02-17T12:23:03.857Z,10.50
2023-02-17T12:25:55.792Z,10.50
2023-02-17T12:28:59.341Z,10.60
2023-02-17T12:31:41.140Z,10.70
2023-02-17T12:34:33.721Z,10.70
2023-02-17T12:37:01.052Z,10.70
2023-02-17T12:39:55.153Z,10.80
2023-02-17T12:42:30.363Z,10.90
2023-02-17T12:45:21.108Z,10.80
2023-02-17T12:48:25.985Z,10.80
2023-02-17T12:51:06.954Z,10.80
2023-02-17T12:53:46.452Z,10.90
2023-02-17T12:56:33.301Z,10.90
2023-02-17T12:59:12.245Z,10.90
2023-02-17T13:01:51.848Z,10.90
2023-02-17T13:04:20.841Z,11.00
2023-02-17T13:06:54.970Z,11.00
2023-02-17T13:09:45.968Z,11.10
2023-02-17T13:12:24.947Z,11.10
2023-02-17T13:14:57.317Z,11.10
2023-02-17T13:17:38.032Z,11.10
2023-02-17T13:20:12.089Z,11.10
2023-02-17T13:22:40.591Z,11.20
2023-02-17T13:25:11.504Z,11.20
2023-02-17T13:27:40.177Z,11.20
2023-02-17T13:30:22.185Z,11.30
2023-02-17T13:33:02.052Z,11.30
2023-02-17T13:35:36.043Z,11.30
2023-02-17T13:38:03.623Z,11.30
2023-02-17T13:40:30.416Z,11.30
2023-02-17T13:43:07.738Z,11.30
2023-02-17T13:45:43.151Z,11.40
2023-02-17T13:48:14.678Z,11.40
2023-02-17T13:50:50.728Z,11.40
2023-02-17T13:53:20.875Z,11.40
2023-02-17T13:55:47.608Z,11.50
2023-02-17T13:58:14.348Z,11.50
2023-02-17T14:00:43.725Z,11.50
2023-02-17T14:03:24.475Z,11.50
2023-02-17T14:05:54.000Z,11.50
2023-02-17T14:08:38.026Z,11.60
2023-02-17T14:11:08.895Z,11.60
2023-02-17T14:13:37.406Z,11.60
2023-02-17T14:16:06.903Z,11.60
2023-02-17T14:18:39.596Z,11.70
2023-02-17T14:21:12.513Z,11.70
2023-02-17T14:23:49.052Z,11.80
2023-02-17T14:26:28.048Z,11.80
2023-02-17T14:28:57.469Z,11.80
2023-02-17T14:31:24.950Z,11.80
2023-02-17T14:33:57.242Z,11.90
2023-02-17T14:36:38.887Z,11.90
2023-02-17T14:39:08.561Z,11.90
2023-02-17T14:41:35.404Z,11.90
2023-02-17T14:44:02.046Z,11.90
2023-02-17T14:46:30.161Z,11.90
2023-02-17T14:48:56.929Z,11.90
2023-02-17T14:51:26.369Z,12.00
2023-02-17T14:53:53.241Z,12.00
2023-02-17T14:56:40.314Z,12.10
2023-02-17T14:59:07.026Z,12.10
2023-02-17T15:01:33.741Z,12.20
2023-02-17T15:04:01.952Z,12.30
2023-02-17T15:06:56.035Z,12.50
2023-02-17T15:09:30.626Z,12.60
2023-02-17T15:11:58.415Z,12.70
2023-02-17T15:14:28.256Z,12.80
2023-02-17T15:16:54.925Z,12.80
2023-02-17T15:19:21.818Z,12.80
2023-02-17T15:21:51.242Z,12.80
2023-02-17T15:24:22.167Z,12.90
2023-02-17T15:26:48.827Z,12.90
2023-02-17T15:29:18.524Z,12.80
2023-02-17T15:31:46.035Z,12.70
2023-02-17T15:34:19.271Z,12.60
2023-02-17T15:36:47.392Z,12.50
2023-02-17T15:39:16.802Z,12.50
2023-02-17T15:41:44.701Z,12.50
2023-02-17T15:44:22.378Z,12.50
2023-02-17T15:46:52.451Z,12.40
2023-02-17T15:49:19.184Z,12.40
2023-02-17T15:51:45.858Z,12.40
2023-02-17T15:54:13.126Z,12.40
2023-02-17T15:56:51.094Z,12.40
2023-02-17T15:59:26.863Z,12.30
2023-02-17T16:01:56.043Z,12.30
2023-02-17T16:04:22.809Z,12.30
2023-02-17T16:06:50.644Z,12.30
2023-02-17T16:09:19.924Z,12.30
2023-02-17T16:11:52.846Z,12.30
2023-02-17T16:14:39.787Z,12.30
2023-02-17T16:17:14.324Z,12.30
2023-02-17T16:19:40.962Z,12.30
2023-02-17T16:22:07.710Z,12.30
2023-02-17T16:24:34.485Z,12.30
2023-02-17T16:27:01.527Z,12.20
2023-02-17T16:29:28.191Z,12.30
2023-02-17T16:31:55.862Z,12.30
2023-02-17T16:34:24.469Z,12.30
2023-02-17T16:36:53.298Z,12.30
2023-02-17T16:39:21.232Z,12.30
2023-02-17T16:41:49.099Z,12.30
2023-02-17T16:44:17.834Z,12.40
2023-02-17T16:46:50.226Z,12.40
2023-02-17T16:49:25.764Z,12.40
2023-02-17T16:51:52.783Z,12.40
2023-02-17T16:54:19.741Z,12.40
2023-02-17T16:56:49.364Z,12.40
2023-02-17T16:59:18.761Z,12.50
2023-02-17T17:01:46.461Z,12.50
2023-02-17T17:04:15.548Z,12.50
2023-02-17T17:06:49.121Z,12.50
2023-02-17T17:09:18.526Z,12.50
2023-02-17T17:11:48.275Z,12.50
2023-02-17T17:14:15.129Z,12.40
2023-02-17T17:16:45.359Z,12.40
2023-02-17T17:19:13.435Z,12.40
2023-02-17T17:21:40.208Z,12.40
2023-02-17T17:24:06.899Z,12.30
2023-02-17T17:26:36.772Z,12.30
2023-02-17T17:29:03.980Z,12.30
2023-02-17T17:31:30.914Z,12.30
2023-02-17T17:33:57.660Z,12.30
2023-02-17T17:36:36.403Z,12.30
2023-02-17T17:39:05.161Z,12.30
2023-02-17T17:41:35.146Z,12.30
2023-02-17T17:44:01.934Z,12.30
2023-02-17T17:46:31.351Z,12.30
2023-02-17T17:49:00.185Z,12.20
2023-02-17T17:51:29.209Z,12.20
2023-02-17T17:53:56.927Z,12.20
2023-02-17T17:56:29.842Z,12.20
2023-02-17T17:58:58.337Z,12.20
2023-02-17T18:01:27.937Z,12.20
2023-02-17T18:03:55.317Z,12.20
2023-02-17T18:06:26.105Z,12.20
2023-02-17T18:08:59.224Z,12.20
2023-02-17T18:11:25.898Z,12.20
2023-02-17T18:13:56.685Z,12.20
2023-02-17T18:16:25.297Z,12.20
2023-02-17T18:18:53.509Z,12.20
2023-02-17T18:21:20.417Z,12.20
2023-02-17T18:23:47.198Z,12.20
2023-02-17T18:26:15.245Z,12.20
2023-02-17T18:28:47.232Z,12.20
2023-02-17T18:31:15.726Z,12.20
2023-02-17T18:33:43.274Z,12.20
2023-02-17T18:36:17.414Z,12.20
2023-02-17T18:38:46.313Z,12.20
2023-02-17T18:41:30.899Z,12.10
2023-02-17T18:44:00.161Z,12.10
2023-02-17T18:46:27.599Z,12.10
2023-02-17T18:48:59.548Z,12.00
2023-02-17T18:51:27.590Z,12.00
2023-02-17T18:53:56.284Z,11.90
2023-02-17T18:56:26.992Z,11.90
2023-02-17T18:58:57.047Z,11.90
2023-02-17T19:01:36.098Z,11.90
2023-02-17T19:04:04.748Z,11.90
2023-02-17T19:06:34.622Z,11.80
2023-02-17T19:09:02.827Z,11.80
2023-02-17T19:11:29.685Z,11.80
2023-02-17T19:13:56.511Z,11.80
2023-02-17T19:16:27.082Z,11.80
2023-02-17T19:18:54.849Z,11.80
2023-02-17T19:21:22.512Z,11.80
2023-02-17T19:23:50.150Z,11.70
2023-02-17T19:26:18.562Z,11.70
2023-02-17T19:28:45.479Z,11.70
2023-02-17T19:31:21.086Z,11.70
2023-02-17T19:33:47.921Z,11.80
2023-02-17T19:36:18.261Z,11.80
2023-02-17T19:38:45.965Z,11.80
2023-02-17T19:41:13.411Z,11.80
2023-02-17T19:43:40.988Z,11.80
2023-02-17T19:46:08.259Z,11.80
2023-02-17T19:48:35.070Z,11.80
2023-02-17T19:51:06.132Z,11.80
2023-02-17T19:53:33.587Z,11.80
2023-02-17T19:56:12.086Z,11.80
2023-02-17T19:58:40.145Z,11.80
2023-02-17T20:01:12.526Z,11.80
2023-02-17T20:03:39.627Z,11.80
2023-02-17T20:06:17.193Z,11.80
2023-02-17T20:08:45.725Z,11.80
2023-02-17T20:11:12.963Z,11.80
2023-02-17T20:13:46.060Z,11.80
2023-02-17T20:16:15.188Z,11.80
2023-02-17T20:18:44.708Z,11.70
2023-02-17T20:21:15.107Z,11.80
2023-02-17T20:23:42.026Z,11.70
2023-02-17T20:26:12.131Z,11.80
2023-02-17T20:28:39.091Z,11.70
2023-02-17T20:31:06.689Z,11.70
2023-02-17T20:33:33.769Z,11.70
2023-02-17T20:36:00.704Z,11.70
2023-02-17T20:38:27.677Z,11.80
2023-02-17T20:40:54.994Z,11.80
2023-02-17T20:43:21.888Z,11.80
2023-02-17T20:45:52.001Z,11.80
2023-02-17T20:48:19.751Z,11.80
2023-02-17T20:50:46.579Z,11.80
2023-02-17T20:53:13.465Z,11.90
2023-02-17T20:55:40.153Z,11.80
2023-02-17T20:58:07.283Z,11.80
2023-02-17T21:00:34.080Z,11.80
2023-02-17T21:03:00.910Z,11.80
2023-02-17T21:05:27.608Z,11.80
2023-02-17T21:07:56.270Z,11.80
2023-02-17T21:10:26.477Z,11.80
2023-02-17T21:12:54.942Z,11.80
2023-02-17T21:15:22.297Z,11.80
2023-02-17T21:17:49.593Z,11.80
2023-02-17T21:20:19.645Z,11.70
2023-02-17T21:22:46.386Z,11.80
2023-02-17T21:25:13.548Z,11.80
2023-02-17T21:27:40.239Z,11.70
2023-02-17T21:30:08.578Z,11.70
2023-02-17T21:32:36.664Z,11.70
2023-02-17T21:35:05.683Z,11.70
2023-02-17T21:37:32.489Z,11.70
2023-02-17T21:39:59.202Z,11.70
2023-02-17T21:42:45.862Z,11.70
2023-02-17T21:45:12.854Z,11.80
2023-02-17T21:47:39.531Z,11.70
2023-02-17T21:50:07.312Z,11.60
2023-02-17T21:52:34.064Z,11.60
2023-02-17T21:55:01.503Z,11.60
2023-02-17T21:57:28.211Z,11.60
2023-02-17T21:59:54.912Z,11.50
2023-02-17T22:02:21.628Z,11.60
2023-02-17T22:04:48.252Z,11.50
2023-02-17T22:07:14.886Z,11.50
2023-02-17T22:09:44.321Z,11.50
2023-02-17T22:12:10.946Z,11.50
2023-02-17T22:14:37.638Z,11.50
2023-02-17T22:17:04.291Z,11.50
2023-02-17T22:19:31.652Z,11.40
2023-02-17T22:21:58.700Z,11.40
2023-02-17T22:24:27.113Z,11.50
2023-02-17T22:26:54.890Z,11.40
2023-02-17T22:29:21.571Z,11.40
2023-02-17T22:31:50.268Z,11.40
2023-02-17T22:34:17.209Z,11.30
2023-02-17T22:36:43.960Z,11.30
2023-02-17T22:39:10.655Z,11.30
2023-02-17T22:41:38.810Z,11.30
2023-02-17T22:44:05.621Z,11.30
2023-02-17T22:46:32.572Z,11.40
2023-02-17T22:49:02.788Z,11.30
2023-02-17T22:51:36.237Z,11.40
2023-02-17T22:54:03.565Z,11.40
2023-02-17T22:56:30.414Z,11.40
2023-02-17T22:59:00.597Z,11.40
2023-02-17T23:01:29.063Z,11.40
2023-02-17T23:03:55.714Z,11.40
2023-02-17T23:06:31.734Z,11.40
2023-02-17T23:09:00.328Z,11.40
2023-02-17T23:11:49.743Z,11.40
2023-02-17T23:14:28.733Z,11.40
2023-02-17T23:17:03.065Z,11.40
2023-02-17T23:19:30.357Z,11.40
2023-02-17T23:22:00.369Z,11.40
2023-02-17T23:24:30.099Z,11.40
2023-02-17T23:26:58.254Z,11.40
2023-02-17T23:29:25.332Z,11.40
2023-02-17T23:31:54.860Z,11.40
2023-02-17T23:34:21.570Z,11.40
2023-02-17T23:36:48.317Z,11.30
2023-02-17T23:39:16.346Z,11.30
2023-02-17T23:41:43.084Z,11.30
2023-02-17T23:44:11.537Z,11.30
2023-02-17T23:46:39.536Z,11.30
2023-02-17T23:49:06.232Z,11.20
2023-02-17T23:51:33.293Z,11.20
2023-02-17T23:54:00.412Z,11.20
2023-02-17T23:56:32.744Z,11.30
2023-02-17T23:59:00.117Z,11.20
